createdAt,value
2023-04-28T00:02:26.672Z,15.25
2023-04-28T00:05:12.091Z,14.25
2023-04-28T00:07:57.292Z,15.40
2023-04-28T00:10:42.786Z,16.83
2023-04-28T00:13:28.211Z,14.63
2023-04-28T00:16:13.455Z,14.33
2023-04-28T00:18:58.838Z,11.60
2023-04-28T00:21:43.558Z,11.55
2023-04-28T00:24:28.429Z,13.77
2023-04-28T00:27:13.764Z,13.65
2023-04-28T00:29:58.649Z,13.10
2023-04-28T00:32:43.996Z,15.82
2023-04-28T00:35:29.380Z,13.63
2023-04-28T00:38:14.892Z,11.63
2023-04-28T00:41:00.145Z,14.05
2023-04-28T00:43:46.408Z,12.27
2023-04-28T00:46:33.556Z,13.50
2023-04-28T00:49:18.811Z,11.57
2023-04-28T00:52:07.360Z,15.10
2023-04-28T00:54:52.707Z,16.33
2023-04-28T00:57:38.327Z,14.00
2023-04-28T01:00:23.393Z,16.98
2023-04-28T01:03:09.740Z,16.90
2023-04-28T01:05:55.706Z,15.30
2023-04-28T01:08:40.729Z,15.60
2023-04-28T01:11:25.647Z,17.10
2023-04-28T01:14:10.502Z,14.30
2023-04-28T01:16:56.512Z,15.93
2023-04-28T01:19:42.034Z,13.40
2023-04-28T01:22:27.169Z,18.13
2023-04-28T01:25:11.941Z,15.47
2023-04-28T01:27:56.740Z,14.43
2023-04-28T01:30:42.237Z,14.50
2023-04-28T01:33:27.677Z,16.70
2023-04-28T01:36:12.962Z,18.13
2023-04-28T01:38:58.158Z,17.33
2023-04-28T01:41:43.129Z,18.58
2023-04-28T01:44:28.625Z,15.10
2023-04-28T01:47:13.890Z,15.37
2023-04-28T01:49:58.755Z,18.65
2023-04-28T01:52:44.263Z,18.50
2023-04-28T01:55:47.872Z,16.25
2023-04-28T01:58:32.788Z,16.23
2023-04-28T02:01:18.192Z,15.27
2023-04-28T02:04:03.606Z,14.95
2023-04-28T02:06:48.824Z,15.25
2023-04-28T02:09:34.224Z,17.95
2023-04-28T02:12:19.606Z,17.17
2023-04-28T02:15:05.374Z,16.85
2023-04-28T02:17:50.734Z,18.00
2023-04-28T02:20:36.166Z,17.27
2023-04-28T02:23:20.947Z,17.63
2023-04-28T02:26:06.155Z,15.40
2023-04-28T02:28:51.428Z,17.47
2023-04-28T02:31:36.544Z,18.17
2023-04-28T02:34:21.920Z,19.83
2023-04-28T02:37:06.867Z,18.65
2023-04-28T02:39:52.177Z,22.17
2023-04-28T02:42:37.056Z,19.53
2023-04-28T02:45:22.006Z,17.85
2023-04-28T02:48:06.912Z,20.02
2023-04-28T02:50:52.545Z,16.13
2023-04-28T02:53:37.615Z,18.43
2023-04-28T02:56:22.664Z,16.63
2023-04-28T02:59:07.680Z,19.75
2023-04-28T03:01:52.616Z,20.08
2023-04-28T03:04:38.327Z,18.43
2023-04-28T03:07:23.620Z,18.90
2023-04-28T03:10:09.061Z,15.77
2023-04-28T03:12:53.897Z,17.47
2023-04-28T03:15:39.231Z,19.87
2023-04-28T03:18:24.280Z,16.95
2023-04-28T03:21:09.241Z,21.23
2023-04-28T03:23:54.255Z,17.80
2023-04-28T03:26:39.093Z,20.70
2023-04-28T03:29:24.109Z,20.10
2023-04-28T03:32:09.618Z,20.00
2023-04-28T03:34:54.835Z,22.40
2023-04-28T03:37:40.069Z,20.27
2023-04-28T03:40:25.188Z,20.05
2023-04-28T03:43:10.617Z,18.25
2023-04-28T03:45:55.788Z,18.88
2023-04-28T03:48:40.829Z,16.92
2023-04-28T03:51:25.718Z,17.83
2023-04-28T03:54:10.785Z,18.50
2023-04-28T03:56:56.007Z,18.98
2023-04-28T03:59:41.291Z,19.45
2023-04-28T04:02:26.279Z,19.27
2023-04-28T04:05:11.473Z,17.38
2023-04-28T04:07:56.858Z,20.95
2023-04-28T04:10:41.644Z,18.95
2023-04-28T04:13:26.689Z,20.80
2023-04-28T04:16:12.232Z,19.58
2023-04-28T04:18:57.502Z,19.58
2023-04-28T04:21:42.441Z,20.27
2023-04-28T04:24:27.326Z,21.05
2023-04-28T04:27:12.620Z,20.67
2023-04-28T04:29:57.950Z,17.55
2023-04-28T04:32:42.950Z,20.30
2023-04-28T04:35:28.484Z,23.33
2023-04-28T04:38:13.650Z,21.35
2023-04-28T04:40:58.495Z,21.45
2023-04-28T04:43:43.356Z,21.95
2023-04-28T04:46:28.401Z,19.90
2023-04-28T04:49:13.701Z,26.83
2023-04-28T04:51:58.529Z,17.92
2023-04-28T04:54:43.931Z,20.15
2023-04-28T04:57:28.784Z,18.50
2023-04-28T05:00:14.149Z,21.48
2023-04-28T05:02:59.177Z,20.60
2023-04-28T05:05:46.202Z,20.83
2023-04-28T05:08:31.503Z,18.55
2023-04-28T05:11:16.597Z,20.45
2023-04-28T05:14:01.781Z,23.33
2023-04-28T05:16:47.092Z,20.35
2023-04-28T05:19:32.095Z,21.55
2023-04-28T05:22:17.510Z,20.52
2023-04-28T05:25:03.011Z,20.67
2023-04-28T05:27:48.343Z,18.48
2023-04-28T05:30:33.937Z,19.40
2023-04-28T05:33:19.131Z,21.75
2023-04-28T05:36:04.738Z,19.50
2023-04-28T05:38:49.863Z,25.92
2023-04-28T05:41:35.626Z,19.85
2023-04-28T05:44:20.795Z,19.98
2023-04-28T05:47:06.542Z,19.75
2023-04-28T05:49:51.550Z,20.42
2023-04-28T05:52:36.481Z,23.15
2023-04-28T05:55:22.073Z,20.80
2023-04-28T05:58:07.319Z,20.33
2023-04-28T06:00:52.476Z,24.73
2023-04-28T06:03:38.025Z,20.75
2023-04-28T06:06:23.510Z,20.40
2023-04-28T06:09:08.726Z,22.77
2023-04-28T06:11:54.090Z,23.23
2023-04-28T06:14:39.394Z,25.00
2023-04-28T06:17:24.892Z,22.73
2023-04-28T06:20:10.320Z,27.23
2023-04-28T06:22:55.240Z,23.30
2023-04-28T06:25:40.292Z,23.17
2023-04-28T06:28:25.837Z,24.52
2023-04-28T06:31:10.996Z,22.77
2023-04-28T06:33:56.239Z,24.52
2023-04-28T06:36:41.483Z,25.52
2023-04-28T06:39:28.078Z,24.23
2023-04-28T06:42:13.012Z,26.58
2023-04-28T06:44:57.917Z,23.30
2023-04-28T06:47:43.352Z,25.55
2023-04-28T06:50:29.104Z,21.40
2023-04-28T06:53:14.386Z,22.20
2023-04-28T06:55:59.322Z,26.60
2023-04-28T06:58:44.513Z,22.17
2023-04-28T07:01:29.739Z,23.90
2023-04-28T07:04:15.304Z,27.30
2023-04-28T07:07:00.461Z,21.75
2023-04-28T07:09:45.922Z,21.77
2023-04-28T07:12:31.248Z,22.33
2023-04-28T07:15:16.111Z,23.00
2023-04-28T07:18:01.109Z,19.83
2023-04-28T07:20:46.595Z,21.45
2023-04-28T07:23:31.762Z,23.92
2023-04-28T07:26:16.970Z,24.20
2023-04-28T07:29:02.503Z,21.23
2023-04-28T07:31:47.856Z,23.90
2023-04-28T07:34:33.162Z,23.58
2023-04-28T07:37:18.433Z,21.83
2023-04-28T07:40:04.397Z,21.77
2023-04-28T07:42:49.572Z,22.20
2023-04-28T07:45:39.186Z,22.10
2023-04-28T07:48:24.608Z,22.55
2023-04-28T07:51:09.749Z,23.98
2023-04-28T07:53:54.733Z,23.83
2023-04-28T07:56:39.684Z,23.63
2023-04-28T07:59:24.932Z,21.10
2023-04-28T08:02:09.897Z,23.45
2023-04-28T08:04:55.299Z,23.10
2023-04-28T08:07:40.480Z,19.77
2023-04-28T08:10:25.841Z,22.85
2023-04-28T08:13:11.851Z,21.45
2023-04-28T08:15:56.832Z,25.13
2023-04-28T08:18:42.265Z,21.85
2023-04-28T08:21:27.621Z,19.83
2023-04-28T08:24:12.572Z,19.58
2023-04-28T08:26:57.612Z,18.20
2023-04-28T08:29:43.203Z,19.80
2023-04-28T08:32:28.408Z,17.77
2023-04-28T08:35:13.950Z,17.85
2023-04-28T08:37:59.305Z,17.95
2023-04-28T08:40:44.585Z,21.35
2023-04-28T08:43:29.668Z,18.98
2023-04-28T08:46:18.248Z,19.38
2023-04-28T08:49:06.319Z,19.90
2023-04-28T08:52:00.193Z,19.15
2023-04-28T08:54:49.238Z,22.17
2023-04-28T08:57:55.837Z,19.38
2023-04-28T09:00:41.009Z,18.73
2023-04-28T09:03:26.753Z,20.05
2023-04-28T09:06:12.052Z,21.17
2023-04-28T09:09:17.946Z,20.88
2023-04-28T09:12:03.763Z,18.13
2023-04-28T09:14:58.235Z,20.27
2023-04-28T09:17:50.499Z,19.85
2023-04-28T09:20:36.756Z,22.35
2023-04-28T09:23:24.349Z,24.75
2023-04-28T09:26:09.704Z,25.60
2023-04-28T09:29:11.938Z,24.27
2023-04-28T09:32:14.757Z,24.33
2023-04-28T09:35:00.256Z,23.70
2023-04-28T09:37:45.698Z,26.52
2023-04-28T09:40:30.835Z,23.23
2023-04-28T09:43:35.375Z,23.50
2023-04-28T09:46:29.173Z,22.67
2023-04-28T09:49:14.760Z,22.42
2023-04-28T09:52:13.523Z,23.75
2023-04-28T09:55:02.836Z,26.08
2023-04-28T09:57:50.261Z,22.25
2023-04-28T10:00:36.678Z,20.73
2023-04-28T10:03:29.409Z,22.75
2023-04-28T10:06:15.468Z,23.25
2023-04-28T10:09:01.638Z,19.25
2023-04-28T10:11:47.337Z,22.45
2023-04-28T10:14:33.195Z,20.63
2023-04-28T10:17:18.486Z,21.77
2023-04-28T10:20:04.912Z,20.83
2023-04-28T10:22:55.756Z,21.83
2023-04-28T10:25:42.621Z,22.35
2023-04-28T10:28:27.738Z,19.15
2023-04-28T10:31:14.163Z,18.80
2023-04-28T10:34:22.208Z,20.60
2023-04-28T10:37:07.247Z,22.13
2023-04-28T10:40:30.675Z,22.80
2023-04-28T10:43:27.816Z,21.77
2023-04-28T10:46:13.153Z,23.60
2023-04-28T10:48:58.585Z,23.38
2023-04-28T10:51:43.937Z,23.48
2023-04-28T10:54:29.333Z,20.05
2023-04-28T10:57:15.502Z,21.20
2023-04-28T11:00:29.617Z,21.90
2023-04-28T11:03:42.906Z,21.25
2023-04-28T11:06:54.377Z,19.75
2023-04-28T11:09:39.165Z,20.48
2023-04-28T11:12:24.765Z,20.63
2023-04-28T11:15:13.208Z,19.63
2023-04-28T11:17:59.376Z,21.52
2023-04-28T11:20:55.186Z,21.90
2023-04-28T11:23:40.520Z,18.55
2023-04-28T11:26:27.763Z,21.58
2023-04-28T11:29:13.004Z,18.58
2023-04-28T11:31:58.120Z,17.77
2023-04-28T11:34:51.844Z,18.75
2023-04-28T11:37:36.728Z,17.60
2023-04-28T11:40:22.136Z,19.88
2023-04-28T11:43:07.548Z,20.40
2023-04-28T11:45:52.504Z,19.20
2023-04-28T11:48:38.271Z,18.10
2023-04-28T11:51:29.383Z,19.35
2023-04-28T11:54:21.123Z,21.77
2023-04-28T11:57:06.424Z,18.80
2023-04-28T11:59:51.736Z,19.15
2023-04-28T12:02:37.365Z,20.58
2023-04-28T12:05:22.685Z,20.42
2023-04-28T12:08:08.079Z,19.95
2023-04-28T12:11:13.324Z,20.27
2023-04-28T12:14:06.875Z,18.88
2023-04-28T12:16:52.440Z,20.58
2023-04-28T12:19:44.379Z,20.45
2023-04-28T12:22:30.233Z,21.23
2023-04-28T12:25:17.192Z,21.15
2023-04-28T12:28:08.394Z,17.98
2023-04-28T12:31:04.638Z,18.85
2023-04-28T12:33:49.677Z,18.20
2023-04-28T12:36:34.558Z,20.20
2023-04-28T12:39:19.917Z,18.05
2023-04-28T12:42:04.763Z,17.90
2023-04-28T12:44:50.221Z,18.13
2023-04-28T12:47:36.652Z,18.35
2023-04-28T12:50:21.720Z,18.45
2023-04-28T12:53:07.212Z,18.13
2023-04-28T12:55:53.711Z,19.65
2023-04-28T12:58:39.235Z,18.20
2023-04-28T13:01:24.488Z,20.33
2023-04-28T13:04:10.274Z,19.25
2023-04-28T13:06:55.563Z,19.92
2023-04-28T13:09:41.419Z,18.48
2023-04-28T13:12:26.903Z,17.95
2023-04-28T13:15:12.307Z,18.77
2023-04-28T13:17:57.617Z,21.33
2023-04-28T13:21:03.555Z,18.75
2023-04-28T13:23:48.843Z,21.45
2023-04-28T13:26:33.797Z,18.20
2023-04-28T13:29:19.112Z,19.05
2023-04-28T13:32:04.749Z,19.80
2023-04-28T13:34:50.862Z,18.58
2023-04-28T13:37:36.431Z,20.27
2023-04-28T13:40:21.854Z,18.63
2023-04-28T13:43:07.083Z,18.33
2023-04-28T13:45:53.357Z,19.55
2023-04-28T13:48:40.098Z,18.48
2023-04-28T13:51:25.079Z,18.50
2023-04-28T13:54:11.106Z,20.00
2023-04-28T13:56:57.134Z,19.35
2023-04-28T13:59:42.604Z,20.40
2023-04-28T14:02:27.981Z,19.98
2023-04-28T14:05:13.470Z,21.40
2023-04-28T14:07:58.930Z,21.27
2023-04-28T14:10:44.486Z,22.13
2023-04-28T14:13:29.724Z,21.63
2023-04-28T14:16:14.619Z,22.65
2023-04-28T14:19:00.000Z,24.50
2023-04-28T14:21:45.466Z,25.48
2023-04-28T14:24:30.605Z,26.23
2023-04-28T14:27:15.472Z,25.25
2023-04-28T14:30:00.803Z,24.90
2023-04-28T14:32:45.813Z,27.38
2023-04-28T14:35:31.068Z,22.42
2023-04-28T14:38:16.460Z,24.65
2023-04-28T14:41:01.768Z,27.10
2023-04-28T14:43:47.135Z,24.98
2023-04-28T14:46:32.525Z,27.88
2023-04-28T14:49:17.931Z,23.65
2023-04-28T14:52:02.782Z,21.88
2023-04-28T14:54:51.179Z,26.02
2023-04-28T14:57:36.121Z,20.65
2023-04-28T15:00:21.058Z,24.65
2023-04-28T15:03:06.688Z,25.27
2023-04-28T15:05:52.499Z,23.63
2023-04-28T15:08:37.871Z,22.27
2023-04-28T15:11:22.949Z,24.15
2023-04-28T15:14:08.209Z,21.35
2023-04-28T15:16:53.142Z,21.55
2023-04-28T15:19:38.834Z,21.30
2023-04-28T15:22:24.225Z,21.80
2023-04-28T15:25:09.729Z,21.08
2023-04-28T15:27:55.179Z,20.60
2023-04-28T15:30:40.566Z,23.70
2023-04-28T15:33:25.836Z,21.63
2023-04-28T15:36:12.341Z,25.45
2023-04-28T15:38:57.347Z,22.42
2023-04-28T15:41:42.855Z,21.50
2023-04-28T15:44:30.423Z,24.17
2023-04-28T15:47:15.683Z,23.05
2023-04-28T15:50:01.003Z,23.98
2023-04-28T15:52:46.152Z,23.08
2023-04-28T15:55:31.458Z,23.65
2023-04-28T15:58:16.906Z,27.17
2023-04-28T16:01:01.784Z,27.77
2023-04-28T16:03:48.309Z,29.98
2023-04-28T16:06:33.526Z,28.98
2023-04-28T16:09:19.068Z,29.23
2023-04-28T16:12:04.480Z,26.67
2023-04-28T16:14:49.939Z,29.40
2023-04-28T16:17:36.302Z,28.00
2023-04-28T16:20:21.495Z,28.88
2023-04-28T16:23:07.193Z,28.23
2023-04-28T16:25:52.518Z,28.17
2023-04-28T16:28:37.421Z,28.10
2023-04-28T16:31:22.887Z,29.00
2023-04-28T16:34:08.010Z,28.50
2023-04-28T16:36:52.937Z,31.88
2023-04-28T16:39:37.791Z,30.15
2023-04-28T16:42:23.240Z,29.20
2023-04-28T16:45:09.103Z,29.92
2023-04-28T16:47:54.230Z,27.83
2023-04-28T16:50:40.862Z,27.73
2023-04-28T16:53:26.032Z,28.95
2023-04-28T16:56:11.514Z,29.90
2023-04-28T16:58:56.935Z,29.25
2023-04-28T17:01:41.950Z,28.08
2023-04-28T17:04:27.998Z,26.15
2023-04-28T17:07:13.188Z,24.80
2023-04-28T17:09:58.635Z,23.98
2023-04-28T17:12:44.149Z,22.13
2023-04-28T17:15:29.014Z,20.33
2023-04-28T17:18:14.339Z,20.90
2023-04-28T17:20:59.211Z,21.63
2023-04-28T17:23:44.237Z,18.40
2023-04-28T17:26:30.359Z,19.30
2023-04-28T17:29:15.641Z,19.10
2023-04-28T17:32:01.020Z,17.80
2023-04-28T17:34:46.352Z,17.20
2023-04-28T17:37:32.946Z,17.33
2023-04-28T17:40:18.242Z,16.63
2023-04-28T17:43:03.330Z,16.77
2023-04-28T17:45:48.847Z,16.77
2023-04-28T17:48:34.134Z,14.32
2023-04-28T17:51:20.513Z,13.18
2023-04-28T17:54:05.875Z,13.20
2023-04-28T17:56:51.339Z,12.85
2023-04-28T17:59:36.711Z,12.98
2023-04-28T18:02:22.022Z,13.20
2023-04-28T18:05:08.136Z,12.65
2023-04-28T18:07:53.225Z,13.50
2023-04-28T18:10:38.451Z,12.88
2023-04-28T18:13:23.924Z,13.57
2023-04-28T18:16:09.241Z,12.23
2023-04-28T18:18:54.555Z,12.52
2023-04-28T18:21:39.847Z,12.57
2023-04-28T18:24:25.426Z,13.57
2023-04-28T18:27:11.039Z,12.80
2023-04-28T18:29:56.241Z,13.02
2023-04-28T18:32:41.811Z,12.88
2023-04-28T18:35:26.881Z,14.27
2023-04-28T18:38:11.877Z,13.93
2023-04-28T18:40:58.066Z,13.70
2023-04-28T18:43:43.499Z,14.63
2023-04-28T18:46:28.979Z,14.35
2023-04-28T18:49:14.180Z,15.65
2023-04-28T18:51:59.489Z,14.05
2023-04-28T18:54:44.470Z,13.45
2023-04-28T18:57:29.767Z,13.60
2023-04-28T19:00:15.771Z,13.48
2023-04-28T19:03:00.942Z,14.45
2023-04-28T19:05:46.559Z,16.25
2023-04-28T19:08:31.502Z,14.77
2023-04-28T19:11:17.047Z,14.43
2023-04-28T19:14:02.326Z,14.30
2023-04-28T19:16:47.664Z,15.55
2023-04-28T19:19:33.176Z,15.05
2023-04-28T19:22:37.196Z,18.85
2023-04-28T19:25:22.350Z,16.55
2023-04-28T19:28:07.235Z,17.23
2023-04-28T19:30:53.420Z,17.98
2023-04-28T19:33:38.580Z,17.67
2023-04-28T19:36:23.333Z,17.23
2023-04-28T19:39:08.114Z,18.75
2023-04-28T19:41:52.939Z,17.60
2023-04-28T19:44:38.424Z,16.73
2023-04-28T19:47:27.610Z,16.70
2023-04-28T19:50:12.794Z,18.90
2023-04-28T19:52:57.974Z,17.65
2023-04-28T19:55:42.797Z,17.95
2023-04-28T19:58:27.635Z,17.88
2023-04-28T20:01:12.726Z,18.70
2023-04-28T20:03:58.101Z,18.08
2023-04-28T20:06:43.506Z,19.05
2023-04-28T20:09:28.397Z,19.20
2023-04-28T20:12:14.139Z,21.25
2023-04-28T20:14:59.505Z,19.25
2023-04-28T20:17:44.651Z,21.42
2023-04-28T20:20:30.062Z,21.05
2023-04-28T20:23:15.369Z,22.60
2023-04-28T20:26:02.169Z,23.08
2023-04-28T20:28:47.436Z,25.52
2023-04-28T20:31:33.029Z,25.15
2023-04-28T20:34:18.284Z,25.35
2023-04-28T20:37:03.767Z,27.08
2023-04-28T20:39:48.784Z,28.83
2023-04-28T20:42:33.985Z,26.85
2023-04-28T20:45:18.827Z,29.27
2023-04-28T20:48:04.149Z,28.67
2023-04-28T20:50:49.317Z,31.15
2023-04-28T20:53:34.534Z,30.30
2023-04-28T20:56:19.752Z,27.02
2023-04-28T20:59:04.508Z,28.27
2023-04-28T21:01:49.388Z,26.27
2023-04-28T21:04:34.899Z,27.63
2023-04-28T21:07:19.614Z,27.77
2023-04-28T21:10:04.883Z,26.13
2023-04-28T21:12:49.881Z,27.27
2023-04-28T21:15:41.982Z,25.80
2023-04-28T21:18:27.380Z,29.60
2023-04-28T21:21:13.327Z,26.85
2023-04-28T21:23:58.585Z,28.05
2023-04-28T21:26:43.506Z,25.52
2023-04-28T21:29:28.479Z,26.25
2023-04-28T21:32:13.928Z,28.08
2023-04-28T21:34:59.477Z,28.15
2023-04-28T21:37:45.126Z,28.85
2023-04-28T21:40:30.514Z,28.73
2023-04-28T21:43:16.538Z,29.52
2023-04-28T21:46:01.945Z,31.42
2023-04-28T21:48:47.389Z,27.85
2023-04-28T21:51:32.525Z,28.58
2023-04-28T21:54:17.457Z,27.95
2023-04-28T21:57:02.871Z,29.52
2023-04-28T21:59:48.579Z,28.52
2023-04-28T22:02:34.405Z,27.42
2023-04-28T22:05:20.212Z,26.20
2023-04-28T22:08:05.394Z,26.55
2023-04-28T22:10:50.891Z,26.45
2023-04-28T22:13:36.058Z,26.88
2023-04-28T22:16:21.812Z,26.85
2023-04-28T22:19:07.191Z,28.98
2023-04-28T22:21:52.627Z,29.70
2023-04-28T22:24:38.077Z,29.52
2023-04-28T22:27:23.601Z,30.25
2023-04-28T22:30:09.593Z,30.75
2023-04-28T22:32:54.938Z,30.55
2023-04-28T22:35:40.354Z,28.17
2023-04-28T22:38:25.718Z,30.70
2023-04-28T22:41:10.871Z,30.52
2023-04-28T22:43:56.301Z,30.20
2023-04-28T22:46:41.708Z,29.48
2023-04-28T22:49:27.234Z,30.08
2023-04-28T22:52:12.495Z,29.67
2023-04-28T22:54:58.442Z,26.90
2023-04-28T22:57:43.418Z,31.17
2023-04-28T23:00:29.001Z,26.88
2023-04-28T23:03:13.986Z,26.55
2023-04-28T23:05:59.627Z,25.65
2023-04-28T23:08:44.646Z,24.60
2023-04-28T23:11:29.990Z,27.15
2023-04-28T23:14:15.418Z,25.23
2023-04-28T23:17:00.267Z,25.90
2023-04-28T23:19:45.705Z,28.75
2023-04-28T23:22:30.643Z,25.88
2023-04-28T23:25:15.936Z,24.90
2023-04-28T23:28:01.380Z,26.33
2023-04-28T23:30:46.755Z,25.92
2023-04-28T23:33:32.098Z,28.15
2023-04-28T23:36:17.536Z,26.63
2023-04-28T23:39:03.008Z,26.67
2023-04-28T23:41:48.131Z,30.58
2023-04-28T23:44:33.627Z,30.08
2023-04-28T23:47:19.112Z,32.22
2023-04-28T23:50:04.771Z,32.22
2023-04-28T23:52:50.084Z,31.48
2023-04-28T23:55:35.585Z,32.35
2023-04-28T23:58:20.933Z,31.65
